Time;durP1;ratioP1;P1;durP2;ratioP2;P2;SDS_P1;SDS_P2;PMS_P1;PMS_P2;Temp;Humidity;BMP_temperature;BMP_pressure;BME280_temperature;BME280_humidity;BME280_pressure;Samples;Min_cycle;Max_cycle;Signal;HPM_P1;HPM_P2
2021/12/03 00:00:57;;;;;;;29.42;11.15;;;;;;;0.92;82.72;97337.34;4896763;29;20029;-56
2021/12/03 00:03:22;;;;;;;27.30;9.95;;;;;;;0.99;82.51;97343.91;4880755;29;20493;-51
2021/12/03 00:05:48;;;;;;;27.70;10.57;;;;;;;1.03;82.77;97336.88;4884820;29;20032;-56
2021/12/03 00:08:14;;;;;;;29.05;10.70;;;;;;;0.88;83.41;97340.97;4919291;29;20106;-53
2021/12/03 00:10:39;;;;;;;29.42;11.80;;;;;;;0.97;83.33;97345.75;4899600;29;20029;-53
2021/12/03 00:13:06;;;;;;;27.17;10.45;;;;;;;0.92;82.86;97353.66;4881063;29;20021;-50
2021/12/03 00:15:31;;;;;;;27.25;10.40;;;;;;;1.07;82.54;97362.50;4881339;29;20029;-55
2021/12/03 00:17:57;;;;;;;25.25;9.68;;;;;;;1.12;82.28;97363.13;4880970;29;20029;-53
2021/12/03 00:20:24;;;;;;;25.77;9.93;;;;;;;0.96;82.73;97367.28;4882553;29;20029;-54
2021/12/03 00:22:50;;;;;;;28.00;10.07;;;;;;;1.12;82.34;97370.06;4880009;29;20394;-51
2021/12/03 00:25:15;;;;;;;27.67;10.85;;;;;;;1.07;82.36;97388.34;4881395;29;20029;-55
2021/12/03 00:27:41;;;;;;;24.13;9.75;;;;;;;0.83;82.70;97389.41;4881299;29;20434;-55
2021/12/03 00:30:08;;;;;;;25.98;9.40;;;;;;;0.83;83.17;97395.41;4881412;29;20029;-55
2021/12/03 00:32:33;;;;;;;26.30;9.82;;;;;;;0.75;83.78;97391.44;4885974;29;20037;-55
2021/12/03 00:34:59;;;;;;;27.13;11.02;;;;;;;0.85;83.67;97401.31;4900714;29;20071;-56
2021/12/03 00:37:24;;;;;;;24.77;9.32;;;;;;;1.07;82.71;97405.59;4917685;29;20020;-54
2021/12/03 00:39:50;;;;;;;25.65;9.30;;;;;;;0.94;83.38;97415.59;4918951;29;20424;-52
2021/12/03 00:42:16;;;;;;;29.02;10.95;;;;;;;0.84;84.10;97416.88;4905397;29;20359;-55
2021/12/03 00:44:44;;;;;;;21.52;9.35;;;;;;;0.71;83.97;97426.88;4880995;29;20037;-52
2021/12/03 00:47:09;;;;;;;19.60;8.02;;;;;;;0.73;83.18;97434.56;4881319;29;20037;-52
2021/12/03 00:49:35;;;;;;;24.27;9.18;;;;;;;0.70;83.71;97431.19;4890079;29;20031;-54
2021/12/03 00:52:00;;;;;;;21.17;8.25;;;;;;;0.61;84.67;97438.47;4899505;29;20083;-55
2021/12/03 00:54:25;;;;;;;25.90;9.48;;;;;;;0.73;84.21;97439.72;4882060;29;20513;-57
2021/12/03 00:56:51;;;;;;;25.10;9.00;;;;;;;0.68;85.09;97443.31;4880854;29;20104;-53
2021/12/03 00:59:16;;;;;;;21.95;9.50;;;;;;;0.67;84.76;97439.06;4880804;29;20040;-54
2021/12/03 01:01:41;;;;;;;24.65;9.55;;;;;;;0.58;85.61;97444.59;4881143;29;20029;-54
2021/12/03 01:04:07;;;;;;;22.60;8.65;;;;;;;0.53;85.32;97449.13;4896394;29;20025;-52
2021/12/03 01:06:32;;;;;;;23.60;9.02;;;;;;;0.44;85.93;97449.47;4880754;29;20093;-54
2021/12/03 01:08:58;;;;;;;20.23;8.07;;;;;;;0.55;85.16;97457.66;4881011;29;20397;-54
2021/12/03 01:11:23;;;;;;;19.38;7.95;;;;;;;0.61;85.55;97457.38;4880492;29;20028;-51
2021/12/03 01:13:48;;;;;;;19.00;7.38;;;;;;;0.60;85.22;97452.28;4881679;29;20036;-53
2021/12/03 01:16:14;;;;;;;18.23;7.15;;;;;;;0.47;85.40;97459.69;4881779;29;20036;-52
2021/12/03 01:18:40;;;;;;;19.70;7.18;;;;;;;0.61;84.86;97467.69;4898115;29;20099;-54
2021/12/03 01:21:06;;;;;;;16.42;6.05;;;;;;;0.63;84.54;97473.66;4899402;29;20016;-52
2021/12/03 01:23:31;;;;;;;16.02;5.55;;;;;;;0.69;84.02;97470.00;4897997;29;20176;-56
2021/12/03 01:25:56;;;;;;;14.80;5.95;;;;;;;0.69;83.75;97480.31;4889668;29;20451;-51
2021/12/03 01:28:22;;;;;;;13.48;5.22;;;;;;;0.65;83.38;97479.59;4883659;29;20025;-52
2021/12/03 01:30:48;;;;;;;16.15;5.82;;;;;;;0.68;83.93;97489.78;4897804;29;20028;-53
2021/12/03 01:33:13;;;;;;;16.00;5.82;;;;;;;0.54;84.54;97492.06;4936768;29;20036;-54
2021/12/03 01:35:38;;;;;;;13.27;5.60;;;;;;;0.62;84.45;97484.88;4907076;29;20032;-54
2021/12/03 01:38:04;;;;;;;16.60;5.72;;;;;;;0.43;84.57;97489.09;4884449;29;20055;-54
2021/12/03 01:40:30;;;;;;;18.05;6.03;;;;;;;0.49;84.40;97490.59;4884826;29;20045;-51
2021/12/03 01:42:55;;;;;;;13.77;4.80;;;;;;;0.69;83.39;97495.81;4884632;29;20037;-54
2021/12/03 01:45:24;;;;;;;11.77;4.47;;;;;;;0.67;83.18;97502.75;4889847;29;20080;-54
2021/12/03 01:47:51;;;;;;;15.02;5.65;;;;;;;0.59;83.14;97500.50;4903203;29;20604;-53
2021/12/03 01:50:16;;;;;;;13.20;5.13;;;;;;;0.61;82.82;97503.00;4903274;29;20481;-55
2021/12/03 01:52:42;;;;;;;15.48;5.45;;;;;;;0.52;83.72;97506.78;4903253;29;20085;-54
2021/12/03 01:55:09;;;;;;;16.33;6.15;;;;;;;0.44;83.73;97513.97;4903629;29;20031;-54
2021/12/03 01:57:35;;;;;;;15.43;4.75;;;;;;;0.63;83.42;97514.94;4901910;29;20032;-54
2021/12/03 02:00:00;;;;;;;14.55;5.25;;;;;;;0.68;83.31;97520.75;4918333;29;20035;-54
2021/12/03 02:02:26;;;;;;;16.77;5.95;;;;;;;0.49;83.56;97512.06;4921988;29;20095;-51
2021/12/03 02:04:52;;;;;;;22.45;7.93;;;;;;;0.70;83.03;97518.97;4920295;29;20063;-51
2021/12/03 02:07:17;;;;;;;17.00;6.13;;;;;;;0.75;82.54;97515.34;4912179;29;20029;-54
2021/12/03 02:09:42;;;;;;;16.13;5.97;;;;;;;0.77;82.20;97513.56;4884501;29;20037;-53
2021/12/03 02:12:08;;;;;;;18.95;6.90;;;;;;;0.66;83.29;97507.09;4884594;29;20035;-54
2021/12/03 02:14:34;;;;;;;30.65;11.52;;;;;;;0.34;84.39;97507.50;4911748;29;20057;-55
2021/12/03 02:16:59;;;;;;;18.27;7.55;;;;;;;0.53;84.68;97518.78;4921626;29;20508;-51
2021/12/03 02:19:24;;;;;;;19.25;6.47;;;;;;;0.54;84.34;97517.88;4889803;29;20033;-52
2021/12/03 02:21:50;;;;;;;22.20;8.40;;;;;;;0.27;84.77;97522.38;4884610;29;20120;-52
2021/12/03 02:24:15;;;;;;;48.28;15.52;;;;;;;0.30;85.21;97529.16;4883906;29;20065;-49
2021/12/03 02:26:42;;;;;;;29.80;12.10;;;;;;;0.11;86.01;97524.69;4892078;29;20387;-54
2021/12/03 02:29:07;;;;;;;44.17;16.48;;;;;;;0.06;85.98;97526.59;4903968;29;20405;-53
2021/12/03 02:31:33;;;;;;;39.08;13.02;;;;;;;0.03;87.24;97523.28;4885819;29;20059;-54
2021/12/03 02:33:58;;;;;;;32.22;12.10;;;;;;;0.15;86.40;97526.25;4902347;29;20040;-54
2021/12/03 02:36:23;;;;;;;29.67;10.43;;;;;;;0.18;85.56;97526.16;4902903;29;20477;-55
2021/12/03 02:38:49;;;;;;;27.92;10.65;;;;;;;0.39;85.70;97528.81;4901276;29;20037;-54
2021/12/03 02:41:14;;;;;;;25.48;9.48;;;;;;;0.41;85.21;97533.03;4882372;29;20031;-52
2021/12/03 02:43:40;;;;;;;18.70;7.35;;;;;;;0.59;84.42;97528.88;4883327;29;20021;-54
2021/12/03 02:46:05;;;;;;;23.73;8.95;;;;;;;0.43;84.11;97533.78;4882349;29;20029;-50
2021/12/03 02:48:32;;;;;;;21.33;8.35;;;;;;;0.69;84.05;97534.53;4888662;29;20055;-55
2021/12/03 02:50:57;;;;;;;19.70;7.28;;;;;;;0.69;83.50;97532.78;4895529;29;20052;-55
2021/12/03 02:53:23;;;;;;;20.35;8.00;;;;;;;0.85;82.61;97535.56;4883249;29;20025;-55
2021/12/03 02:55:49;;;;;;;18.88;7.60;;;;;;;0.83;82.45;97539.97;4907404;29;20028;-56
2021/12/03 02:58:14;;;;;;;19.75;7.90;;;;;;;0.88;82.71;97547.53;4921261;29;20032;-54
2021/12/03 03:00:40;;;;;;;23.92;9.32;;;;;;;0.69;83.63;97543.09;4910385;29;20517;-53
2021/12/03 03:03:06;;;;;;;21.25;8.55;;;;;;;0.86;82.70;97546.72;4883389;29;20473;-53
2021/12/03 03:05:31;;;;;;;25.15;9.52;;;;;;;0.57;83.60;97543.56;4884268;29;20044;-52
2021/12/03 03:07:57;;;;;;;22.10;8.95;;;;;;;0.57;84.70;97548.72;4884761;29;20021;-53
2021/12/03 03:10:27;;;;;;;24.58;9.07;;;;;;;0.59;83.81;97536.63;4919896;29;20436;-54
2021/12/03 03:12:53;;;;;;;18.88;7.95;;;;;;;0.47;83.95;97548.25;4884746;29;20057;-51
2021/12/03 03:15:18;;;;;;;23.20;8.38;;;;;;;0.58;83.70;97555.56;4883101;29;20033;-53
2021/12/03 03:17:44;;;;;;;24.05;8.77;;;;;;;0.76;82.82;97553.16;4882845;29;20598;-54
2021/12/03 03:20:10;;;;;;;21.95;8.25;;;;;;;0.65;83.79;97561.31;4884316;29;20036;-51
2021/12/03 03:22:36;;;;;;;26.88;9.98;;;;;;;0.77;82.23;97560.88;4890977;29;20516;-54
2021/12/03 03:25:02;;;;;;;23.48;8.93;;;;;;;0.87;81.71;97567.34;4921073;29;20027;-56
2021/12/03 03:27:28;;;;;;;26.15;9.82;;;;;;;0.64;82.34;97570.81;4920196;29;20059;-55
2021/12/03 03:29:53;;;;;;;23.58;8.98;;;;;;;0.82;82.36;97573.56;4920825;29;20056;-53
2021/12/03 03:32:19;;;;;;;28.00;10.73;;;;;;;0.73;82.49;97579.13;4916010;29;20037;-55
2021/12/03 03:34:44;;;;;;;25.05;9.85;;;;;;;0.75;82.31;97574.72;4882987;29;20085;-54
2021/12/03 03:37:10;;;;;;;26.15;9.57;;;;;;;0.88;81.64;97578.50;4883649;29;20029;-55
2021/12/03 03:39:35;;;;;;;25.08;8.60;;;;;;;0.67;82.81;97578.44;4920881;29;20035;-53
2021/12/03 03:42:01;;;;;;;22.30;9.45;;;;;;;0.94;81.49;97586.00;4921021;29;20496;-55
2021/12/03 03:44:26;;;;;;;22.98;8.65;;;;;;;0.82;81.27;97573.56;4892763;29;20033;-52
2021/12/03 03:46:52;;;;;;;22.35;9.25;;;;;;;0.62;82.19;97588.13;4882892;29;20450;-51
2021/12/03 03:49:18;;;;;;;24.92;9.20;;;;;;;0.70;82.40;97591.25;4883518;29;20025;-56
2021/12/03 03:51:43;;;;;;;21.85;9.18;;;;;;;0.43;83.25;97587.13;4890012;29;20112;-55
2021/12/03 03:54:09;;;;;;;25.95;9.80;;;;;;;0.47;83.32;97588.69;4881748;29;20035;-52
2021/12/03 03:56:34;;;;;;;30.30;10.38;;;;;;;0.62;82.90;97592.41;4882235;29;20029;-55
2021/12/03 03:59:00;;;;;;;24.17;10.27;;;;;;;0.35;83.71;97589.16;4882660;29;20032;-55
2021/12/03 04:01:25;;;;;;;22.10;9.25;;;;;;;0.54;83.54;97595.28;4883878;29;20029;-54
2021/12/03 04:03:51;;;;;;;26.20;10.63;;;;;;;0.54;83.18;97592.72;4882386;29;20063;-53
2021/12/03 04:06:17;;;;;;;26.85;10.30;;;;;;;0.68;83.13;97600.75;4891781;29;20036;-52
2021/12/03 04:08:43;;;;;;;30.92;11.05;;;;;;;0.65;82.05;97593.16;4901462;29;20386;-56
2021/12/03 04:11:08;;;;;;;28.70;10.90;;;;;;;0.73;82.01;97612.69;4892952;29;20187;-54
2021/12/03 04:13:33;;;;;;;28.02;10.30;;;;;;;0.78;81.62;97618.50;4882541;29;20025;-55
2021/12/03 04:15:59;;;;;;;24.10;9.57;;;;;;;0.42;83.22;97621.56;4882119;29;20041;-53
2021/12/03 04:18:24;;;;;;;25.77;9.85;;;;;;;0.64;82.88;97617.28;4881903;29;20031;-52
2021/12/03 04:20:50;;;;;;;25.77;10.05;;;;;;;0.58;82.91;97614.91;4913031;29;20496;-52
2021/12/03 04:23:19;;;;;;;24.25;9.25;;;;;;;0.51;83.51;97605.72;4882411;29;20025;-51
2021/12/03 04:25:46;;;;;;;27.27;10.00;;;;;;;0.67;82.59;97622.31;4882047;29;20056;-53
2021/12/03 04:28:12;;;;;;;23.17;8.50;;;;;;;0.77;80.51;97622.81;4882400;29;20029;-53
2021/12/03 04:30:37;;;;;;;25.92;9.68;;;;;;;0.50;81.18;97614.38;4882159;29;20039;-57
2021/12/03 04:33:02;;;;;;;28.80;9.80;;;;;;;0.60;81.78;97625.19;4883061;29;20040;-52
2021/12/03 04:35:28;;;;;;;27.27;9.90;;;;;;;0.29;83.25;97636.66;4914186;29;20028;-53
2021/12/03 04:37:53;;;;;;;27.40;10.00;;;;;;;0.11;84.65;97638.16;4919107;29;20031;-54
2021/12/03 04:40:19;;;;;;;28.45;10.45;;;;;;;0.12;83.92;97644.16;4919733;29;20545;-55
2021/12/03 04:42:44;;;;;;;27.35;9.57;;;;;;;0.27;82.62;97647.91;4909814;29;20045;-54
2021/12/03 04:45:11;;;;;;;27.90;9.52;;;;;;;0.33;82.90;97658.03;4881268;29;20025;-54
2021/12/03 04:47:37;;;;;;;21.23;8.45;;;;;;;0.20;80.58;97650.72;4889789;29;20033;-53
2021/12/03 04:50:07;;;;;;;25.27;8.75;;;;;;;0.34;80.97;97657.13;4900492;29;20031;-54
2021/12/03 04:52:32;;;;;;;22.15;8.52;;;;;;;0.51;79.19;97656.50;4900240;29;20044;-55
2021/12/03 04:54:57;;;;;;;23.38;9.35;;;;;;;0.42;79.83;97668.84;4898763;29;20028;-55
2021/12/03 04:57:23;;;;;;;21.50;8.40;;;;;;;0.43;78.88;97672.28;4900104;29;20401;-53
2021/12/03 04:59:48;;;;;;;17.80;6.53;;;;;;;0.46;78.24;97679.91;4900367;29;20057;-53
2021/12/03 05:02:14;;;;;;;22.42;8.00;;;;;;;0.46;77.83;97680.75;4893684;29;20021;-54
2021/12/03 05:04:40;;;;;;;22.17;8.50;;;;;;;0.34;79.33;97676.00;4878580;29;20397;-54
2021/12/03 05:09:34;;;;;;;25.05;8.57;;;;;;;0.43;80.06;97685.16;4878552;29;20033;-52
2021/12/03 05:11:59;;;;;;;22.10;8.82;;;;;;;0.31;80.55;97685.59;4878560;29;20033;-50
2021/12/03 05:14:24;;;;;;;27.13;9.25;;;;;;;0.52;80.49;97689.16;4895138;29;20066;-49
2021/12/03 05:16:50;;;;;;;25.58;9.48;;;;;;;0.37;80.47;97690.53;4897081;29;20032;-52
2021/12/03 05:19:16;;;;;;;23.33;7.90;;;;;;;0.35;80.37;97713.00;4897226;29;20021;-54
2021/12/03 05:21:42;;;;;;;22.38;8.85;;;;;;;0.37;78.96;97706.03;4897005;29;20493;-50
2021/12/03 05:24:07;;;;;;;21.58;7.80;;;;;;;0.31;79.50;97717.44;4898264;29;20032;-50
2021/12/03 05:26:33;;;;;;;20.38;7.57;;;;;;;0.32;79.30;97728.59;4896728;29;20033;-48
2021/12/03 05:28:58;;;;;;;27.33;10.18;;;;;;;0.19;80.47;97716.09;4897096;29;20028;-50
2021/12/03 05:31:23;;;;;;;23.02;9.48;;;;;;;0.23;79.76;97727.16;4897166;29;20028;-51
2021/12/03 05:33:49;;;;;;;21.40;9.15;;;;;;;0.20;80.60;97720.34;4894855;29;20103;-52
2021/12/03 05:36:14;;;;;;;23.83;9.25;;;;;;;0.22;80.11;97731.47;4896876;29;20033;-52
2021/12/03 05:38:40;;;;;;;20.30;8.52;;;;;;;0.27;80.39;97735.63;4896966;29;20174;-49
2021/12/03 05:41:05;;;;;;;24.02;9.57;;;;;;;0.32;80.28;97741.47;4896828;29;20021;-52
2021/12/03 05:43:31;;;;;;;19.50;8.18;;;;;;;0.37;78.69;97742.97;4900682;29;20036;-49
2021/12/03 05:45:56;;;;;;;24.83;8.55;;;;;;;0.28;79.82;97735.59;4889200;29;20033;-52
2021/12/03 05:48:22;;;;;;;19.52;7.28;;;;;;;0.50;77.60;97753.72;4878315;29;20033;-52
2021/12/03 05:50:48;;;;;;;20.35;8.27;;;;;;;0.53;77.01;97751.03;4878130;29;20040;-51
2021/12/03 05:53:13;;;;;;;19.83;7.78;;;;;;;0.30;78.28;97761.31;4877859;29;20032;-49
2021/12/03 05:55:39;;;;;;;19.95;8.07;;;;;;;0.10;80.01;97767.97;4879195;29;20053;-49
2021/12/03 05:58:04;;;;;;;25.10;9.73;;;;;;;0.31;79.94;97763.88;4883551;29;20730;-50
2021/12/03 06:00:35;;;;;;;36.63;11.95;;;;;;;-0.01;79.06;97762.34;4915685;29;20503;-52
2021/12/03 06:03:01;;;;;;;74.68;23.80;;;;;;;0.06;78.24;97770.72;4915688;29;20031;-52
2021/12/03 06:05:27;;;;;;;39.50;13.93;;;;;;;-0.02;79.04;97771.00;4883168;29;20036;-49
2021/12/03 06:07:52;;;;;;;20.60;8.18;;;;;;;0.06;78.18;97774.16;4896704;29;20103;-52
2021/12/03 06:10:18;;;;;;;29.38;10.80;;;;;;;-0.25;80.34;97775.13;4896473;29;20028;-52
2021/12/03 06:12:43;;;;;;;26.73;11.15;;;;;;;-0.10;80.22;97775.56;4914120;29;20031;-53
2021/12/03 06:15:09;;;;;;;19.25;8.13;;;;;;;0.02;79.37;97772.56;4901548;29;20080;-55
2021/12/03 06:17:34;;;;;;;21.50;8.82;;;;;;;-0.11;79.26;97773.84;4882361;29;20033;-51
2021/12/03 06:20:00;;;;;;;23.50;8.77;;;;;;;-0.13;78.98;97773.91;4882929;29;20025;-53
2021/12/03 06:22:25;;;;;;;24.55;9.13;;;;;;;-0.10;78.67;97783.31;4883164;29;20481;-54
2021/12/03 06:24:51;;;;;;;19.40;8.10;;;;;;;0.02;77.90;97788.03;4882935;29;20029;-52
2021/12/03 06:27:16;;;;;;;32.00;10.98;;;;;;;-0.20;79.72;97777.59;4892949;29;20039;-53
2021/12/03 06:29:41;;;;;;;17.17;7.72;;;;;;;0.19;77.61;97784.91;4900270;29;20397;-49
2021/12/03 06:32:09;;;;;;;21.08;7.40;;;;;;;-0.09;76.94;97784.97;4901044;29;20035;-49
2021/12/03 06:34:35;;;;;;;21.08;7.90;;;;;;;-0.10;77.59;97784.13;4900823;29;20025;-53
2021/12/03 06:37:01;;;;;;;23.33;8.20;;;;;;;-0.36;78.98;97784.13;4887497;29;20033;-52
2021/12/03 06:39:26;;;;;;;32.58;11.70;;;;;;;-0.46;79.75;97785.28;4881683;29;20036;-51
2021/12/03 06:41:51;;;;;;;40.58;14.52;;;;;;;-0.52;80.27;97800.06;4901073;29;20055;-51
2021/12/03 06:44:17;;;;;;;35.65;13.45;;;;;;;-0.50;80.47;97800.00;4918210;29;20036;-52
2021/12/03 06:46:43;;;;;;;89.95;31.95;;;;;;;-0.49;80.74;97796.53;4903915;29;20039;-51
2021/12/03 06:49:08;;;;;;;57.20;21.13;;;;;;;-0.55;80.70;97797.59;4895478;29;20029;-49
2021/12/03 06:51:40;;;;;;;27.35;10.20;;;;;;;-0.37;79.44;97801.31;4880685;29;20025;-50
2021/12/03 06:54:06;;;;;;;24.65;9.55;;;;;;;-0.35;79.29;97803.84;4900128;29;20039;-54
2021/12/03 06:56:47;;;;;;;36.92;14.45;;;;;;;-0.63;80.09;97798.69;4898815;29;20528;-54
2021/12/03 06:59:12;;;;;;;27.10;10.85;;;;;;;-0.46;80.10;97814.47;4915795;29;20042;-53
2021/12/03 07:01:38;;;;;;;29.70;11.98;;;;;;;-0.48;79.51;97816.28;4917825;29;20024;-54
2021/12/03 07:04:03;;;;;;;36.50;16.30;;;;;;;-0.49;79.19;97817.97;4917503;29;20032;-54
2021/12/03 07:06:29;;;;;;;27.10;11.60;;;;;;;-0.49;80.10;97827.44;4894432;29;20037;-55
2021/12/03 07:08:54;;;;;;;21.65;8.35;;;;;;;-0.46;79.87;97840.25;4880258;29;20040;-53
2021/12/03 07:11:20;;;;;;;19.70;7.72;;;;;;;-0.26;79.48;97835.31;4879956;29;20033;-55
2021/12/03 07:13:45;;;;;;;46.08;14.07;;;;;;;-0.22;78.82;97836.06;4880186;29;20500;-53
2021/12/03 07:16:10;;;;;;;34.53;13.32;;;;;;;-0.42;79.34;97846.16;4896102;29;20037;-56
2021/12/03 07:18:37;;;;;;;36.17;14.93;;;;;;;-0.53;80.13;97847.31;4897304;29;20032;-54
2021/12/03 07:21:03;;;;;;;22.77;9.00;;;;;;;-0.21;79.00;97852.38;4898241;29;20029;-53
2021/12/03 07:23:28;;;;;;;25.50;8.82;;;;;;;-0.26;79.58;97855.94;4897778;29;20602;-55
2021/12/03 07:25:54;;;;;;;22.05;8.13;;;;;;;-0.36;80.25;97849.38;4898292;29;20032;-55
2021/12/03 07:28:19;;;;;;;24.40;8.27;;;;;;;-0.26;78.76;97855.94;4898355;29;20031;-56
2021/12/03 07:30:44;;;;;;;18.70;7.68;;;;;;;-0.25;79.51;97860.19;4885126;29;20033;-55
2021/12/03 07:33:13;;;;;;;18.13;7.75;;;;;;;-0.23;79.47;97864.47;4888902;29;20032;-56
2021/12/03 07:35:39;;;;;;;20.50;8.73;;;;;;;-0.33;79.89;97869.91;4898401;29;20024;-55
2021/12/03 07:38:04;;;;;;;23.27;8.52;;;;;;;-0.31;79.50;97881.03;4898210;29;20025;-54
2021/12/03 07:40:30;;;;;;;22.35;9.00;;;;;;;-0.25;79.44;97877.41;4896522;29;20025;-55
2021/12/03 07:42:55;;;;;;;19.80;7.93;;;;;;;-0.08;78.88;97880.31;4898118;29;20488;-55
2021/12/03 07:45:21;;;;;;;21.77;8.35;;;;;;;-0.20;79.08;97888.44;4897706;29;20401;-53
2021/12/03 07:47:46;;;;;;;21.05;7.85;;;;;;;-0.02;77.84;97887.84;4898457;29;20089;-54
2021/12/03 07:50:12;;;;;;;19.88;7.72;;;;;;;-0.08;77.70;97889.78;4896495;29;20065;-56
2021/12/03 07:52:37;;;;;;;22.77;7.55;;;;;;;-0.17;78.86;97895.19;4897906;29;20039;-54
2021/12/03 07:55:03;;;;;;;24.08;8.63;;;;;;;-0.05;78.11;97900.84;4896908;29;20481;-56
2021/12/03 07:57:29;;;;;;;21.42;8.45;;;;;;;0.18;77.79;97900.13;4898636;29;20079;-54
2021/12/03 07:59:54;;;;;;;21.38;7.90;;;;;;;0.17;77.62;97895.00;4882240;29;20037;-56
2021/12/03 08:02:20;;;;;;;19.73;7.25;;;;;;;0.03;78.78;97900.59;4879258;29;20025;-54
2021/12/03 08:04:45;;;;;;;21.80;7.93;;;;;;;0.32;78.10;97909.16;4879169;29;20430;-52
2021/12/03 08:07:11;;;;;;;20.00;7.55;;;;;;;0.53;76.78;97907.63;4880474;29;20440;-50
2021/12/03 08:09:37;;;;;;;19.27;7.63;;;;;;;0.69;75.93;97906.22;4878694;29;20044;-53
2021/12/03 08:12:03;;;;;;;24.02;9.60;;;;;;;0.44;77.53;97903.59;4879062;29;20051;-51
2021/12/03 08:14:28;;;;;;;20.52;8.25;;;;;;;0.51;75.68;97909.41;4877702;29;20064;-55
2021/12/03 08:16:53;;;;;;;29.33;10.65;;;;;;;0.37;75.45;97912.44;4878578;29;20039;-53
2021/12/03 08:19:19;;;;;;;30.00;10.95;;;;;;;0.33;75.64;97911.69;4880694;29;20029;-55
2021/12/03 08:21:44;;;;;;;19.58;8.10;;;;;;;0.57;73.78;97915.19;4878891;29;20043;-53
2021/12/03 08:24:09;;;;;;;27.20;9.80;;;;;;;0.59;73.24;97916.00;4877322;29;20029;-52
2021/12/03 08:26:35;;;;;;;30.10;11.48;;;;;;;0.41;72.92;97914.00;4878630;29;20385;-52
2021/12/03 08:29:00;;;;;;;39.53;14.60;;;;;;;0.18;73.75;97915.59;4879488;29;20088;-52
2021/12/03 08:31:26;;;;;;;36.83;12.65;;;;;;;0.36;72.81;97916.75;4877238;29;20036;-54
2021/12/03 08:33:52;;;;;;;46.40;14.73;;;;;;;0.48;72.66;97915.50;4878252;29;20025;-56
2021/12/03 08:36:17;;;;;;;46.97;15.88;;;;;;;0.40;74.01;97917.50;4878506;29;20036;-54
2021/12/03 08:38:43;;;;;;;69.97;21.40;;;;;;;0.37;74.36;97912.44;4877264;29;20032;-54
2021/12/03 08:41:10;;;;;;;236.45;51.53;;;;;;;0.29;74.14;97919.59;4895173;29;20614;-55
2021/12/03 08:43:35;;;;;;;102.57;28.38;;;;;;;0.18;74.07;97913.03;4894671;29;20029;-55
2021/12/03 08:46:09;;;;;;;217.63;46.75;;;;;;;0.48;73.54;97915.50;4896199;29;20032;-53
2021/12/03 08:48:38;;;;;;;185.50;39.85;;;;;;;0.63;73.33;97919.34;4896787;29;20025;-54
2021/12/03 08:51:12;;;;;;;105.57;26.60;;;;;;;0.59;73.59;97921.16;4883084;29;20509;-56
2021/12/03 08:56:21;;;;;;;91.35;24.38;;;;;;;0.57;73.03;97927.28;4891977;29;20108;-51
2021/12/03 08:58:47;;;;;;;199.93;48.50;;;;;;;0.53;73.38;97929.09;4896555;29;20037;-54
2021/12/03 09:01:13;;;;;;;83.63;27.80;;;;;;;0.47;74.26;97929.31;4886650;29;20029;-50
2021/12/03 09:03:39;;;;;;;58.00;23.45;;;;;;;0.37;73.26;97923.59;4877522;29;20060;-52
2021/12/03 09:06:04;;;;;;;38.40;15.07;;;;;;;0.27;73.87;97927.34;4877687;29;20025;-52
2021/12/03 09:08:30;;;;;;;52.60;19.38;;;;;;;0.52;73.48;97930.00;4877762;29;20393;-55
2021/12/03 09:10:55;;;;;;;57.70;21.20;;;;;;;0.51;73.27;97930.03;4892536;29;20123;-55
2021/12/03 09:13:20;;;;;;;41.17;17.00;;;;;;;0.50;73.85;97933.53;4877612;29;20108;-54
2021/12/03 09:16:00;;;;;;;52.92;21.33;;;;;;;0.59;74.55;97939.25;4877899;29;20410;-52
2021/12/03 09:18:30;;;;;;;40.75;17.08;;;;;;;0.80;73.11;97942.84;4877738;29;20041;-54
2021/12/03 09:21:01;;;;;;;37.55;14.88;;;;;;;0.95;73.10;97941.47;4877816;29;20017;-53
2021/12/03 09:23:38;;;;;;;31.90;15.02;;;;;;;0.99;72.92;97948.22;4879985;29;20080;-53
2021/12/03 09:26:13;;;;;;;46.55;16.67;;;;;;;1.23;71.33;97951.69;4877669;29;20040;-54
2021/12/03 09:28:40;;;;;;;52.13;20.38;;;;;;;0.93;73.35;97958.78;4879886;29;20044;-54
2021/12/03 09:31:05;;;;;;;33.22;11.63;;;;;;;1.33;70.66;97947.03;4896310;29;20366;-54
2021/12/03 09:33:31;;;;;;;47.63;18.02;;;;;;;1.15;71.83;97948.53;4894662;29;20029;-55
2021/12/03 09:36:01;;;;;;;46.55;19.25;;;;;;;1.02;71.62;97937.78;4896496;29;20093;-56
2021/12/03 09:38:30;;;;;;;33.15;12.73;;;;;;;1.45;71.15;97935.44;4896480;29;20029;-53
2021/12/03 09:40:56;;;;;;;32.65;14.15;;;;;;;1.34;70.46;97941.84;4895021;29;20480;-51
2021/12/03 09:43:21;;;;;;;29.65;11.30;;;;;;;1.15;70.76;97927.88;4895186;29;20041;-56
2021/12/03 09:46:22;;;;;;;35.63;12.75;;;;;;;1.14;71.82;97926.19;4898728;29;20095;-55
2021/12/03 09:51:23;;;;;;;28.88;12.25;;;;;;;1.38;70.79;97924.47;4898380;29;20680;-50
2021/12/03 09:56:33;;;;;;;28.80;11.73;;;;;;;1.07;69.60;97919.56;4899520;29;20035;-51
2021/12/03 10:12:55;;;;;;;21.92;9.48;;;;;;;1.02;70.37;97922.28;4869621;29;20497;-56
2021/12/03 10:20:49;;;;;;;29.90;11.48;;;;;;;0.79;70.90;97910.19;4898577;29;20115;-56
2021/12/03 10:29:07;;;;;;;24.08;10.57;;;;;;;1.12;70.89;97902.97;4899450;29;20029;-54
2021/12/03 10:34:40;;;;;;;28.30;11.20;;;;;;;1.49;69.64;97888.75;4899400;29;20041;-55
2021/12/03 10:39:57;;;;;;;25.80;10.07;;;;;;;1.39;70.31;97895.16;4899367;29;20052;-55
2021/12/03 10:53:55;;;;;;;19.73;8.23;;;;;;;1.69;67.84;97902.66;4880495;29;20036;-54
2021/12/03 11:17:33;;;;;;;20.23;7.93;;;;;;;1.12;65.94;97902.16;4878805;29;19933;-54
2021/12/03 11:50:03;;;;;;;16.88;6.90;;;;;;;1.30;67.78;97864.47;4876479;29;20116;-55
2021/12/03 12:57:49;;;;;;;17.40;5.88;;;;;;;0.70;67.47;97833.03;4896278;29;20501;-53
2021/12/03 13:13:33;;;;;;;17.90;4.97;;;;;;;1.04;66.44;97808.59;4877560;29;20506;-55
2021/12/03 13:22:27;;;;;;;15.65;5.05;;;;;;;1.05;66.92;97802.53;4899866;29;20072;-53
2021/12/03 14:18:57;;;;;;;18.40;6.38;;;;;;;1.74;65.72;97787.81;4891592;29;20568;-53
2021/12/03 14:34:38;;;;;;;22.20;6.57;;;;;;;1.59;67.77;97789.28;4899346;29;20091;-54
2021/12/03 14:38:41;;;;;;;25.88;9.52;;;;;;;1.22;69.43;97791.56;4898674;29;20554;-53
2021/12/03 14:41:36;;;;;;;16.20;6.03;;;;;;;1.47;69.35;97781.13;4899114;29;20108;-54
2021/12/03 14:44:17;;;;;;;19.42;6.95;;;;;;;1.17;69.39;97760.72;4898768;29;20041;-52
2021/12/03 14:55:35;;;;;;;19.08;7.32;;;;;;;0.74;70.97;97774.41;4899841;29;20051;-54
2021/12/03 14:58:01;;;;;;;25.40;8.48;;;;;;;0.81;71.64;97781.03;4897937;29;20024;-53
2021/12/03 15:00:35;;;;;;;21.30;8.05;;;;;;;0.58;71.38;97787.84;4899649;29;20049;-51
2021/12/03 15:03:20;;;;;;;21.70;7.20;;;;;;;0.55;72.82;97774.19;4898995;29;20039;-49
2021/12/03 15:05:59;;;;;;;22.13;7.63;;;;;;;0.79;72.36;97777.66;4898437;29;20056;-51
2021/12/03 15:08:28;;;;;;;25.70;9.18;;;;;;;0.56;72.74;97774.16;4898960;29;20088;-53
2021/12/03 15:19:16;;;;;;;24.10;8.18;;;;;;;0.61;71.85;97755.91;4880693;29;20036;-51
2021/12/03 15:22:03;;;;;;;18.45;6.97;;;;;;;0.38;72.98;97759.31;4879733;29;20025;-50
2021/12/03 15:35:57;;;;;;;24.02;8.50;;;;;;;0.27;73.77;97746.78;4860334;29;20037;-53
2021/12/03 15:38:45;;;;;;;24.33;9.25;;;;;;;0.14;74.29;97745.53;4859461;29;20508;-54
2021/12/03 16:05:32;;;;;;;24.17;9.32;;;;;;;-0.10;75.28;97731.75;4840480;29;20434;-51
2021/12/03 16:10:52;;;;;;;25.08;7.90;;;;;;;0.05;75.15;97736.38;4859910;29;20204;-52
2021/12/03 16:52:40;;;;;;;20.88;7.03;;;;;;;-0.11;73.73;97683.63;4896804;29;20055;-50
2021/12/03 16:55:06;;;;;;;21.17;6.85;;;;;;;0.03;73.33;97689.16;4894784;29;20032;-51
2021/12/03 16:57:33;;;;;;;21.17;7.30;;;;;;;-0.16;73.95;97678.63;4896928;29;20481;-52
2021/12/03 17:00:03;;;;;;;19.05;7.03;;;;;;;0.13;73.71;97680.19;4899247;29;20071;-54
2021/12/03 17:02:36;;;;;;;16.88;7.05;;;;;;;0.02;73.91;97684.91;4898898;29;20032;-51
2021/12/03 17:47:32;;;;;;;22.58;7.38;;;;;;;0.11;72.96;97656.22;4877397;29;20039;-49
2021/12/03 17:50:14;;;;;;;17.50;7.20;;;;;;;0.13;73.50;97648.41;4893578;29;20160;-50
2021/12/03 17:58:20;;;;;;;18.13;7.65;;;;;;;0.24;73.36;97651.44;4896274;29;20060;-50
2021/12/03 18:00:54;;;;;;;26.90;9.23;;;;;;;0.26;73.55;97647.09;4896316;29;20021;-53
2021/12/03 18:03:48;;;;;;;22.73;9.40;;;;;;;0.39;73.36;97648.31;4886558;29;20108;-50
2021/12/03 18:11:41;;;;;;;33.72;12.93;;;;;;;0.14;74.74;97653.53;4899504;29;20409;-51
2021/12/03 18:57:09;;;;;;;27.45;9.35;;;;;;;0.16;73.63;97583.84;4886162;29;20036;-53